Warning: Javascript must be enabled to use all the features on this page!


Page Loading - Please Wait...

Click to hideNews Bulletins

Peak Streamflow for the Nation

USGS 03466208 BIG LIMESTONE CREEK NEAR LIMESTONE, TN

Greene County, Tennessee
Hydrologic Unit Code 06010108
Latitude  36°12'21", Longitude  82°39'02" NAD27
Drainage area 79  square miles
Contributing drainage area 79.0  square miles
Gage datum 1,340 feet above NGVD29
Output formats
Table
Graph
Tab-separated file
peakfq (watstore) format
Reselect output format
Water
Year
Date Gage
Height
(feet)
Stream-
flow
(cfs)
1996 1996-05-27 5.41 1,930
1997 1997-03-03 5.24 1,610
1998 1998-04-17 5.22 1,580
1999 1999-01-23 4.01 284
2000 2000-08-10 4.26 431
2001 2001-08-04 12.33 10,400
2002 2002-03-18 5.20 1,540
2003 2003-02-22 6.70 3,460
2004 2003-11-19 6.75 3,530
2005 2004-12-11 4.32 474
2006 2006-04-22 4.72 851
2007 2007-07-31 3.98 270
2008 2008-03-05 3.81 212
2009 2009-01-07 4.65 776
2010 2009-12-09 5.42 1,890
2011 2011-04-09 6.62 2,970
2012 2012-04-06 5.18 1,360
2013 2013-01-15 5.79 1,990
2014 2013-12-22 4.50 727
2015 2015-04-08 4.72 910
2016 2015-12-24 4.68 874
2017 2017-05-28 5.04 1,230
2018 2018-05-26 4.76 941
2019 2019-02-23 7.22 3,740
2020 2020-04-13 7.63 4,280
2021 2021-03-28 5.59 1,770